sensor_id;sensor_type;location;lat;lon;timestamp;P1;durP1;ratioP1;P2;durP2;ratioP2
14066;SDS011;7108;42.684;23.350;2022-08-01T00:01:44;217.77;;;124.03;;
14066;SDS011;7108;42.684;23.350;2022-08-01T00:04:10;229.70;;;129.13;;
14066;SDS011;7108;42.684;23.350;2022-08-01T00:06:35;235.47;;;128.30;;
14066;SDS011;7108;42.684;23.350;2022-08-01T00:09:01;230.70;;;123.13;;
14066;SDS011;7108;42.684;23.350;2022-08-01T00:11:26;249.57;;;129.37;;
14066;SDS011;7108;42.684;23.350;2022-08-01T00:13:52;241.57;;;119.67;;
14066;SDS011;7108;42.684;23.350;2022-08-01T00:16:18;239.60;;;125.60;;
14066;SDS011;7108;42.684;23.350;2022-08-01T00:18:43;221.13;;;119.70;;
14066;SDS011;7108;42.684;23.350;2022-08-01T00:21:09;242.37;;;131.40;;
14066;SDS011;7108;42.684;23.350;2022-08-01T00:23:34;234.17;;;123.53;;
14066;SDS011;7108;42.684;23.350;2022-08-01T00:26:00;235.50;;;127.00;;
14066;SDS011;7108;42.684;23.350;2022-08-01T00:28:25;237.97;;;128.53;;
14066;SDS011;7108;42.684;23.350;2022-08-01T00:30:51;235.73;;;130.47;;
14066;SDS011;7108;42.684;23.350;2022-08-01T00:33:16;240.83;;;134.83;;
14066;SDS011;7108;42.684;23.350;2022-08-01T00:35:42;221.47;;;124.53;;
14066;SDS011;7108;42.684;23.350;2022-08-01T00:38:08;232.63;;;125.93;;
14066;SDS011;7108;42.684;23.350;2022-08-01T00:40:33;228.83;;;126.80;;
14066;SDS011;7108;42.684;23.350;2022-08-01T00:42:59;241.10;;;131.80;;
14066;SDS011;7108;42.684;23.350;2022-08-01T00:45:24;236.07;;;126.60;;
14066;SDS011;7108;42.684;23.350;2022-08-01T00:47:50;236.83;;;128.73;;
14066;SDS011;7108;42.684;23.350;2022-08-01T00:50:15;232.10;;;125.87;;
14066;SDS011;7108;42.684;23.350;2022-08-01T00:52:41;224.37;;;126.07;;
14066;SDS011;7108;42.684;23.350;2022-08-01T00:55:07;224.90;;;126.33;;
14066;SDS011;7108;42.684;23.350;2022-08-01T00:57:34;230.70;;;128.90;;
14066;SDS011;7108;42.684;23.350;2022-08-01T01:00:00;219.27;;;124.73;;
14066;SDS011;7108;42.684;23.350;2022-08-01T01:02:26;247.00;;;130.30;;
14066;SDS011;7108;42.684;23.350;2022-08-01T01:04:51;231.60;;;128.07;;
14066;SDS011;7108;42.684;23.350;2022-08-01T01:07:19;245.50;;;131.20;;
14066;SDS011;7108;42.684;23.350;2022-08-01T01:10:03;240.07;;;129.07;;
14066;SDS011;7108;42.684;23.350;2022-08-01T01:12:53;223.30;;;126.63;;
14066;SDS011;7108;42.684;23.350;2022-08-01T01:18:07;231.73;;;124.87;;
14066;SDS011;7108;42.684;23.350;2022-08-01T01:20:36;226.50;;;127.37;;
14066;SDS011;7108;42.684;23.350;2022-08-01T01:23:16;243.77;;;130.57;;
14066;SDS011;7108;42.684;23.350;2022-08-01T01:31:19;245.23;;;128.17;;
14066;SDS011;7108;42.684;23.350;2022-08-01T01:33:49;234.87;;;126.67;;
14066;SDS011;7108;42.684;23.350;2022-08-01T01:36:16;242.33;;;128.87;;
14066;SDS011;7108;42.684;23.350;2022-08-01T01:38:44;230.80;;;123.37;;
14066;SDS011;7108;42.684;23.350;2022-08-01T01:41:12;229.80;;;128.27;;
14066;SDS011;7108;42.684;23.350;2022-08-01T01:43:39;225.23;;;126.53;;
14066;SDS011;7108;42.684;23.350;2022-08-01T01:46:05;234.73;;;129.20;;
14066;SDS011;7108;42.684;23.350;2022-08-01T01:48:34;238.20;;;131.33;;
14066;SDS011;7108;42.684;23.350;2022-08-01T01:51:00;239.80;;;129.37;;
14066;SDS011;7108;42.684;23.350;2022-08-01T01:53:28;238.53;;;128.03;;
14066;SDS011;7108;42.684;23.350;2022-08-01T01:55:56;243.10;;;129.93;;
14066;SDS011;7108;42.684;23.350;2022-08-01T01:58:23;235.27;;;126.43;;
14066;SDS011;7108;42.684;23.350;2022-08-01T02:00:51;241.17;;;127.27;;
14066;SDS011;7108;42.684;23.350;2022-08-01T02:03:18;239.10;;;126.10;;
14066;SDS011;7108;42.684;23.350;2022-08-01T02:05:46;227.33;;;121.23;;
14066;SDS011;7108;42.684;23.350;2022-08-01T02:08:14;227.60;;;123.27;;
14066;SDS011;7108;42.684;23.350;2022-08-01T02:10:41;232.43;;;124.67;;
14066;SDS011;7108;42.684;23.350;2022-08-01T02:13:32;240.33;;;124.53;;
14066;SDS011;7108;42.684;23.350;2022-08-01T02:16:00;236.47;;;123.03;;
14066;SDS011;7108;42.684;23.350;2022-08-01T02:18:28;230.60;;;123.90;;
14066;SDS011;7108;42.684;23.350;2022-08-01T02:20:53;226.73;;;124.07;;
14066;SDS011;7108;42.684;23.350;2022-08-01T02:23:20;237.73;;;128.63;;
14066;SDS011;7108;42.684;23.350;2022-08-01T02:25:49;234.80;;;122.67;;
14066;SDS011;7108;42.684;23.350;2022-08-01T02:28:41;248.10;;;127.30;;
14066;SDS011;7108;42.684;23.350;2022-08-01T02:31:09;237.03;;;124.73;;
14066;SDS011;7108;42.684;23.350;2022-08-01T02:33:40;233.57;;;120.30;;
14066;SDS011;7108;42.684;23.350;2022-08-01T02:36:11;229.30;;;127.07;;
14066;SDS011;7108;42.684;23.350;2022-08-01T02:38:42;226.17;;;121.13;;
14066;SDS011;7108;42.684;23.350;2022-08-01T02:41:10;224.57;;;121.37;;
14066;SDS011;7108;42.684;23.350;2022-08-01T02:43:43;227.93;;;125.07;;
14066;SDS011;7108;42.684;23.350;2022-08-01T02:46:15;232.60;;;122.40;;
14066;SDS011;7108;42.684;23.350;2022-08-01T02:48:45;228.67;;;125.10;;
14066;SDS011;7108;42.684;23.350;2022-08-01T02:51:12;216.17;;;121.87;;
14066;SDS011;7108;42.684;23.350;2022-08-01T02:53:41;224.00;;;125.60;;
14066;SDS011;7108;42.684;23.350;2022-08-01T02:56:08;237.47;;;124.50;;
14066;SDS011;7108;42.684;23.350;2022-08-01T02:58:35;226.80;;;121.07;;
14066;SDS011;7108;42.684;23.350;2022-08-01T03:01:03;239.90;;;125.60;;
14066;SDS011;7108;42.684;23.350;2022-08-01T03:03:31;220.43;;;122.50;;
14066;SDS011;7108;42.684;23.350;2022-08-01T03:05:57;246.60;;;125.87;;
14066;SDS011;7108;42.684;23.350;2022-08-01T03:08:23;229.80;;;122.13;;
14066;SDS011;7108;42.684;23.350;2022-08-01T03:10:50;230.43;;;126.83;;
14066;SDS011;7108;42.684;23.350;2022-08-01T03:13:18;235.87;;;122.50;;
14066;SDS011;7108;42.684;23.350;2022-08-01T03:15:46;213.80;;;121.33;;
14066;SDS011;7108;42.684;23.350;2022-08-01T03:18:12;221.53;;;121.33;;
14066;SDS011;7108;42.684;23.350;2022-08-01T03:20:40;225.37;;;120.13;;
14066;SDS011;7108;42.684;23.350;2022-08-01T03:23:08;221.20;;;118.40;;
14066;SDS011;7108;42.684;23.350;2022-08-01T03:25:36;221.40;;;117.87;;
14066;SDS011;7108;42.684;23.350;2022-08-01T03:28:04;221.70;;;123.77;;
14066;SDS011;7108;42.684;23.350;2022-08-01T03:30:32;230.10;;;118.33;;
14066;SDS011;7108;42.684;23.350;2022-08-01T03:32:58;233.13;;;121.07;;
14066;SDS011;7108;42.684;23.350;2022-08-01T03:35:28;229.77;;;122.37;;
14066;SDS011;7108;42.684;23.350;2022-08-01T03:37:58;231.77;;;121.90;;
14066;SDS011;7108;42.684;23.350;2022-08-01T03:43:36;224.03;;;118.77;;
14066;SDS011;7108;42.684;23.350;2022-08-01T03:45:59;225.90;;;118.30;;
14066;SDS011;7108;42.684;23.350;2022-08-01T03:48:29;233.50;;;116.20;;
14066;SDS011;7108;42.684;23.350;2022-08-01T03:50:59;220.43;;;116.07;;
14066;SDS011;7108;42.684;23.350;2022-08-01T03:53:28;231.97;;;121.53;;
14066;SDS011;7108;42.684;23.350;2022-08-01T03:55:55;225.83;;;122.97;;
14066;SDS011;7108;42.684;23.350;2022-08-01T03:58:23;232.97;;;121.60;;
14066;SDS011;7108;42.684;23.350;2022-08-01T04:00:50;225.90;;;120.50;;
14066;SDS011;7108;42.684;23.350;2022-08-01T04:03:15;213.87;;;119.13;;
14066;SDS011;7108;42.684;23.350;2022-08-01T04:05:42;217.03;;;119.60;;
14066;SDS011;7108;42.684;23.350;2022-08-01T04:08:07;214.70;;;118.43;;
14066;SDS011;7108;42.684;23.350;2022-08-01T04:10:33;233.07;;;119.70;;
14066;SDS011;7108;42.684;23.350;2022-08-01T04:12:59;226.27;;;121.47;;
14066;SDS011;7108;42.684;23.350;2022-08-01T04:15:25;231.93;;;120.73;;
14066;SDS011;7108;42.684;23.350;2022-08-01T04:17:50;229.43;;;118.43;;
14066;SDS011;7108;42.684;23.350;2022-08-01T04:20:16;224.33;;;119.50;;
14066;SDS011;7108;42.684;23.350;2022-08-01T04:22:42;213.90;;;118.43;;
14066;SDS011;7108;42.684;23.350;2022-08-01T04:25:19;231.17;;;119.10;;
14066;SDS011;7108;42.684;23.350;2022-08-01T04:27:53;228.40;;;116.77;;
14066;SDS011;7108;42.684;23.350;2022-08-01T04:30:24;230.53;;;119.17;;
14066;SDS011;7108;42.684;23.350;2022-08-01T04:32:52;217.73;;;121.57;;
14066;SDS011;7108;42.684;23.350;2022-08-01T04:35:20;224.63;;;120.70;;
14066;SDS011;7108;42.684;23.350;2022-08-01T04:37:46;213.20;;;116.93;;
14066;SDS011;7108;42.684;23.350;2022-08-01T04:40:16;218.27;;;117.13;;
14066;SDS011;7108;42.684;23.350;2022-08-01T04:42:42;233.83;;;121.63;;
14066;SDS011;7108;42.684;23.350;2022-08-01T04:45:08;228.30;;;119.07;;
14066;SDS011;7108;42.684;23.350;2022-08-01T04:47:35;232.07;;;120.93;;
14066;SDS011;7108;42.684;23.350;2022-08-01T04:50:03;227.57;;;119.30;;
14066;SDS011;7108;42.684;23.350;2022-08-01T04:52:32;238.23;;;123.37;;
14066;SDS011;7108;42.684;23.350;2022-08-01T04:54:59;234.70;;;125.43;;
14066;SDS011;7108;42.684;23.350;2022-08-01T04:57:25;244.83;;;131.47;;
14066;SDS011;7108;42.684;23.350;2022-08-01T04:59:50;227.93;;;126.47;;
14066;SDS011;7108;42.684;23.350;2022-08-01T05:02:22;233.70;;;125.23;;
14066;SDS011;7108;42.684;23.350;2022-08-01T05:04:48;227.97;;;128.03;;
14066;SDS011;7108;42.684;23.350;2022-08-01T05:07:13;220.17;;;122.70;;
14066;SDS011;7108;42.684;23.350;2022-08-01T05:09:41;232.90;;;124.70;;
14066;SDS011;7108;42.684;23.350;2022-08-01T05:12:07;240.37;;;122.37;;
14066;SDS011;7108;42.684;23.350;2022-08-01T05:14:33;229.13;;;120.13;;
14066;SDS011;7108;42.684;23.350;2022-08-01T05:17:03;232.30;;;118.60;;
14066;SDS011;7108;42.684;23.350;2022-08-01T05:19:31;219.00;;;117.33;;
14066;SDS011;7108;42.684;23.350;2022-08-01T05:21:58;240.77;;;121.30;;
14066;SDS011;7108;42.684;23.350;2022-08-01T05:24:25;218.63;;;120.37;;
14066;SDS011;7108;42.684;23.350;2022-08-01T05:26:53;220.37;;;120.87;;
14066;SDS011;7108;42.684;23.350;2022-08-01T05:29:19;225.80;;;121.57;;
14066;SDS011;7108;42.684;23.350;2022-08-01T05:31:45;231.97;;;123.03;;
14066;SDS011;7108;42.684;23.350;2022-08-01T05:34:10;233.00;;;124.93;;
14066;SDS011;7108;42.684;23.350;2022-08-01T05:36:35;249.30;;;126.83;;
14066;SDS011;7108;42.684;23.350;2022-08-01T05:39:02;221.60;;;123.10;;
14066;SDS011;7108;42.684;23.350;2022-08-01T05:41:29;231.27;;;122.53;;
14066;SDS011;7108;42.684;23.350;2022-08-01T05:43:55;230.90;;;124.53;;
14066;SDS011;7108;42.684;23.350;2022-08-01T05:46:20;237.23;;;125.83;;
14066;SDS011;7108;42.684;23.350;2022-08-01T05:48:46;223.07;;;122.90;;
14066;SDS011;7108;42.684;23.350;2022-08-01T05:51:11;233.63;;;121.53;;
14066;SDS011;7108;42.684;23.350;2022-08-01T05:53:36;240.83;;;125.93;;
14066;SDS011;7108;42.684;23.350;2022-08-01T05:56:02;226.70;;;120.90;;
14066;SDS011;7108;42.684;23.350;2022-08-01T05:58:28;223.00;;;118.23;;
14066;SDS011;7108;42.684;23.350;2022-08-01T06:00:53;225.63;;;118.57;;
14066;SDS011;7108;42.684;23.350;2022-08-01T06:03:19;216.87;;;116.43;;
14066;SDS011;7108;42.684;23.350;2022-08-01T06:05:44;240.03;;;123.67;;
14066;SDS011;7108;42.684;23.350;2022-08-01T06:08:10;221.57;;;113.80;;
14066;SDS011;7108;42.684;23.350;2022-08-01T06:10:35;238.83;;;117.90;;
14066;SDS011;7108;42.684;23.350;2022-08-01T06:13:01;239.53;;;117.00;;
14066;SDS011;7108;42.684;23.350;2022-08-01T06:15:31;228.20;;;115.40;;
14066;SDS011;7108;42.684;23.350;2022-08-01T06:17:57;219.33;;;112.67;;
14066;SDS011;7108;42.684;23.350;2022-08-01T06:20:23;231.27;;;117.90;;
14066;SDS011;7108;42.684;23.350;2022-08-01T06:22:48;241.07;;;117.40;;
14066;SDS011;7108;42.684;23.350;2022-08-01T06:25:16;234.83;;;116.60;;
14066;SDS011;7108;42.684;23.350;2022-08-01T06:27:42;241.20;;;112.67;;
14066;SDS011;7108;42.684;23.350;2022-08-01T06:30:08;246.10;;;113.87;;
14066;SDS011;7108;42.684;23.350;2022-08-01T06:32:34;269.57;;;114.23;;
14066;SDS011;7108;42.684;23.350;2022-08-01T06:34:59;236.97;;;116.20;;
14066;SDS011;7108;42.684;23.350;2022-08-01T06:37:28;231.33;;;113.83;;
14066;SDS011;7108;42.684;23.350;2022-08-01T06:39:54;231.63;;;114.07;;
14066;SDS011;7108;42.684;23.350;2022-08-01T06:42:20;238.17;;;116.73;;
14066;SDS011;7108;42.684;23.350;2022-08-01T06:44:45;246.40;;;116.50;;
14066;SDS011;7108;42.684;23.350;2022-08-01T06:47:11;243.67;;;115.37;;
14066;SDS011;7108;42.684;23.350;2022-08-01T06:49:37;247.27;;;115.60;;
14066;SDS011;7108;42.684;23.350;2022-08-01T06:52:02;246.57;;;117.97;;
14066;SDS011;7108;42.684;23.350;2022-08-01T06:54:28;235.03;;;115.13;;
14066;SDS011;7108;42.684;23.350;2022-08-01T06:56:54;233.43;;;118.90;;
14066;SDS011;7108;42.684;23.350;2022-08-01T06:59:19;229.47;;;113.40;;
14066;SDS011;7108;42.684;23.350;2022-08-01T07:01:45;236.80;;;120.37;;
14066;SDS011;7108;42.684;23.350;2022-08-01T07:04:10;250.47;;;129.37;;
14066;SDS011;7108;42.684;23.350;2022-08-01T07:06:36;256.97;;;127.83;;
14066;SDS011;7108;42.684;23.350;2022-08-01T07:09:01;242.13;;;119.23;;
14066;SDS011;7108;42.684;23.350;2022-08-01T07:11:28;236.23;;;119.37;;
14066;SDS011;7108;42.684;23.350;2022-08-01T07:13:53;235.87;;;116.00;;
14066;SDS011;7108;42.684;23.350;2022-08-01T07:16:19;240.53;;;117.90;;
14066;SDS011;7108;42.684;23.350;2022-08-01T07:18:44;253.60;;;119.67;;
14066;SDS011;7108;42.684;23.350;2022-08-01T07:21:10;244.40;;;120.97;;
14066;SDS011;7108;42.684;23.350;2022-08-01T07:23:36;249.47;;;118.47;;
14066;SDS011;7108;42.684;23.350;2022-08-01T07:26:02;235.30;;;111.73;;
14066;SDS011;7108;42.684;23.350;2022-08-01T07:28:29;230.27;;;114.60;;
14066;SDS011;7108;42.684;23.350;2022-08-01T07:30:55;231.77;;;115.37;;
14066;SDS011;7108;42.684;23.350;2022-08-01T07:33:20;231.87;;;113.87;;
14066;SDS011;7108;42.684;23.350;2022-08-01T07:35:47;244.87;;;115.67;;
14066;SDS011;7108;42.684;23.350;2022-08-01T07:38:13;250.37;;;118.70;;
14066;SDS011;7108;42.684;23.350;2022-08-01T07:40:40;241.87;;;115.67;;
14066;SDS011;7108;42.684;23.350;2022-08-01T07:43:05;233.50;;;113.63;;
14066;SDS011;7108;42.684;23.350;2022-08-01T07:45:31;243.90;;;119.93;;
14066;SDS011;7108;42.684;23.350;2022-08-01T07:47:56;232.13;;;112.57;;
14066;SDS011;7108;42.684;23.350;2022-08-01T07:50:26;230.77;;;115.67;;
14066;SDS011;7108;42.684;23.350;2022-08-01T07:52:51;232.77;;;110.47;;
14066;SDS011;7108;42.684;23.350;2022-08-01T07:55:17;231.47;;;114.40;;
14066;SDS011;7108;42.684;23.350;2022-08-01T07:57:42;239.70;;;117.17;;
14066;SDS011;7108;42.684;23.350;2022-08-01T08:00:08;245.67;;;118.90;;
14066;SDS011;7108;42.684;23.350;2022-08-01T08:02:34;244.90;;;122.63;;
14066;SDS011;7108;42.684;23.350;2022-08-01T08:04:59;230.87;;;120.53;;
14066;SDS011;7108;42.684;23.350;2022-08-01T08:07:25;238.17;;;118.73;;
14066;SDS011;7108;42.684;23.350;2022-08-01T08:09:50;235.07;;;114.30;;
14066;SDS011;7108;42.684;23.350;2022-08-01T08:12:16;250.40;;;119.50;;
14066;SDS011;7108;42.684;23.350;2022-08-01T08:14:41;251.97;;;123.77;;
14066;SDS011;7108;42.684;23.350;2022-08-01T08:17:07;242.63;;;119.27;;
14066;SDS011;7108;42.684;23.350;2022-08-01T08:19:32;239.83;;;115.33;;
14066;SDS011;7108;42.684;23.350;2022-08-01T08:22:01;229.30;;;112.50;;
14066;SDS011;7108;42.684;23.350;2022-08-01T08:24:26;230.33;;;117.70;;
14066;SDS011;7108;42.684;23.350;2022-08-01T08:26:59;229.07;;;120.13;;
14066;SDS011;7108;42.684;23.350;2022-08-01T08:29:25;238.37;;;123.90;;
14066;SDS011;7108;42.684;23.350;2022-08-01T08:31:52;234.40;;;126.57;;
14066;SDS011;7108;42.684;23.350;2022-08-01T08:34:19;235.57;;;123.67;;
14066;SDS011;7108;42.684;23.350;2022-08-01T08:36:45;257.97;;;122.40;;
14066;SDS011;7108;42.684;23.350;2022-08-01T08:39:11;237.33;;;121.80;;
14066;SDS011;7108;42.684;23.350;2022-08-01T08:41:37;242.40;;;119.77;;
14066;SDS011;7108;42.684;23.350;2022-08-01T08:44:06;248.47;;;121.37;;
14066;SDS011;7108;42.684;23.350;2022-08-01T08:46:33;241.27;;;119.53;;
14066;SDS011;7108;42.684;23.350;2022-08-01T08:49:00;228.80;;;115.20;;
14066;SDS011;7108;42.684;23.350;2022-08-01T08:51:27;239.67;;;117.37;;
14066;SDS011;7108;42.684;23.350;2022-08-01T08:53:56;228.27;;;117.13;;
14066;SDS011;7108;42.684;23.350;2022-08-01T08:56:23;277.57;;;126.53;;
14066;SDS011;7108;42.684;23.350;2022-08-01T08:58:49;258.70;;;121.17;;
14066;SDS011;7108;42.684;23.350;2022-08-01T09:01:19;266.67;;;121.80;;
14066;SDS011;7108;42.684;23.350;2022-08-01T09:03:44;267.07;;;123.03;;
14066;SDS011;7108;42.684;23.350;2022-08-01T09:06:10;291.57;;;130.20;;
14066;SDS011;7108;42.684;23.350;2022-08-01T09:08:36;268.13;;;127.53;;
14066;SDS011;7108;42.684;23.350;2022-08-01T09:11:01;260.70;;;123.50;;
14066;SDS011;7108;42.684;23.350;2022-08-01T09:13:27;281.90;;;123.57;;
14066;SDS011;7108;42.684;23.350;2022-08-01T09:15:54;257.77;;;124.77;;
14066;SDS011;7108;42.684;23.350;2022-08-01T09:18:28;266.63;;;122.67;;
14066;SDS011;7108;42.684;23.350;2022-08-01T09:21:07;263.37;;;118.53;;
14066;SDS011;7108;42.684;23.350;2022-08-01T09:26:18;238.80;;;118.17;;
14066;SDS011;7108;42.684;23.350;2022-08-01T09:28:46;237.87;;;116.70;;
14066;SDS011;7108;42.684;23.350;2022-08-01T09:31:14;248.93;;;119.23;;
14066;SDS011;7108;42.684;23.350;2022-08-01T09:33:58;247.27;;;114.73;;
14066;SDS011;7108;42.684;23.350;2022-08-01T09:39:20;248.00;;;115.97;;
14066;SDS011;7108;42.684;23.350;2022-08-01T09:41:48;238.03;;;118.77;;
14066;SDS011;7108;42.684;23.350;2022-08-01T10:13:39;288.73;;;142.27;;
14066;SDS011;7108;42.684;23.350;2022-08-01T10:16:05;292.10;;;131.83;;
14066;SDS011;7108;42.684;23.350;2022-08-01T10:18:32;286.77;;;132.37;;
14066;SDS011;7108;42.684;23.350;2022-08-01T10:20:59;275.87;;;129.53;;
14066;SDS011;7108;42.684;23.350;2022-08-01T10:23:26;248.10;;;123.90;;
14066;SDS011;7108;42.684;23.350;2022-08-01T10:25:55;258.17;;;124.27;;
14066;SDS011;7108;42.684;23.350;2022-08-01T10:28:23;239.10;;;120.50;;
14066;SDS011;7108;42.684;23.350;2022-08-01T10:30:50;236.97;;;117.73;;
14066;SDS011;7108;42.684;23.350;2022-08-01T10:33:16;239.80;;;122.43;;
14066;SDS011;7108;42.684;23.350;2022-08-01T10:35:43;222.63;;;115.43;;
14066;SDS011;7108;42.684;23.350;2022-08-01T10:38:11;247.07;;;124.90;;
14066;SDS011;7108;42.684;23.350;2022-08-01T10:40:36;239.13;;;127.40;;
14066;SDS011;7108;42.684;23.350;2022-08-01T10:43:02;242.90;;;124.53;;
14066;SDS011;7108;42.684;23.350;2022-08-01T10:45:27;250.47;;;128.37;;
14066;SDS011;7108;42.684;23.350;2022-08-01T10:48:03;236.80;;;124.07;;
14066;SDS011;7108;42.684;23.350;2022-08-01T10:50:37;239.17;;;119.97;;
14066;SDS011;7108;42.684;23.350;2022-08-01T10:53:03;237.80;;;121.77;;
14066;SDS011;7108;42.684;23.350;2022-08-01T10:55:52;233.17;;;124.07;;
14066;SDS011;7108;42.684;23.350;2022-08-01T10:58:35;249.00;;;122.17;;
14066;SDS011;7108;42.684;23.350;2022-08-01T11:03:44;246.17;;;123.80;;
14066;SDS011;7108;42.684;23.350;2022-08-01T11:06:23;234.00;;;124.10;;
14066;SDS011;7108;42.684;23.350;2022-08-01T11:08:51;246.83;;;122.87;;
14066;SDS011;7108;42.684;23.350;2022-08-01T11:11:18;245.33;;;120.60;;
14066;SDS011;7108;42.684;23.350;2022-08-01T11:16:29;233.97;;;123.77;;
14066;SDS011;7108;42.684;23.350;2022-08-01T11:18:56;262.93;;;129.80;;
14066;SDS011;7108;42.684;23.350;2022-08-01T11:21:21;238.67;;;128.20;;
14066;SDS011;7108;42.684;23.350;2022-08-01T11:23:51;246.20;;;138.50;;
14066;SDS011;7108;42.684;23.350;2022-08-01T11:26:18;240.87;;;134.10;;
14066;SDS011;7108;42.684;23.350;2022-08-01T11:28:45;244.27;;;130.97;;
14066;SDS011;7108;42.684;23.350;2022-08-01T11:31:31;260.83;;;134.17;;
14066;SDS011;7108;42.684;23.350;2022-08-01T11:33:57;251.03;;;130.03;;
14066;SDS011;7108;42.684;23.350;2022-08-01T11:36:24;239.93;;;131.50;;
14066;SDS011;7108;42.684;23.350;2022-08-01T11:41:28;234.40;;;123.43;;
14066;SDS011;7108;42.684;23.350;2022-08-01T11:57:22;237.77;;;125.33;;
14066;SDS011;7108;42.684;23.350;2022-08-01T11:59:49;233.63;;;129.57;;
14066;SDS011;7108;42.684;23.350;2022-08-01T12:02:20;237.60;;;135.67;;
14066;SDS011;7108;42.684;23.350;2022-08-01T12:07:15;231.03;;;129.90;;
14066;SDS011;7108;42.684;23.350;2022-08-01T12:09:41;231.97;;;131.37;;
14066;SDS011;7108;42.684;23.350;2022-08-01T12:12:07;284.43;;;135.90;;
14066;SDS011;7108;42.684;23.350;2022-08-01T12:14:33;275.93;;;137.93;;
14066;SDS011;7108;42.684;23.350;2022-08-01T12:16:59;280.87;;;138.10;;
14066;SDS011;7108;42.684;23.350;2022-08-01T12:19:24;282.97;;;133.80;;
14066;SDS011;7108;42.684;23.350;2022-08-01T12:24:36;291.73;;;136.77;;
14066;SDS011;7108;42.684;23.350;2022-08-01T12:27:03;268.73;;;132.73;;
14066;SDS011;7108;42.684;23.350;2022-08-01T12:32:03;293.57;;;134.80;;
14066;SDS011;7108;42.684;23.350;2022-08-01T12:34:29;298.90;;;136.70;;
14066;SDS011;7108;42.684;23.350;2022-08-01T12:36:59;298.57;;;135.23;;
14066;SDS011;7108;42.684;23.350;2022-08-01T12:39:29;288.17;;;135.63;;
14066;SDS011;7108;42.684;23.350;2022-08-01T12:41:56;296.80;;;138.43;;
14066;SDS011;7108;42.684;23.350;2022-08-01T12:44:22;264.73;;;127.40;;
14066;SDS011;7108;42.684;23.350;2022-08-01T12:46:47;288.40;;;132.80;;
14066;SDS011;7108;42.684;23.350;2022-08-01T12:49:13;263.60;;;130.47;;
14066;SDS011;7108;42.684;23.350;2022-08-01T12:51:38;289.90;;;132.27;;
14066;SDS011;7108;42.684;23.350;2022-08-01T12:54:04;244.67;;;126.00;;
14066;SDS011;7108;42.684;23.350;2022-08-01T12:56:32;249.27;;;126.27;;
14066;SDS011;7108;42.684;23.350;2022-08-01T12:58:58;245.70;;;126.10;;
14066;SDS011;7108;42.684;23.350;2022-08-01T13:01:27;237.53;;;129.57;;
14066;SDS011;7108;42.684;23.350;2022-08-01T13:03:57;234.47;;;128.33;;
14066;SDS011;7108;42.684;23.350;2022-08-01T13:06:24;233.83;;;124.83;;
14066;SDS011;7108;42.684;23.350;2022-08-01T13:08:53;247.63;;;128.13;;
14066;SDS011;7108;42.684;23.350;2022-08-01T13:11:19;230.63;;;123.03;;
14066;SDS011;7108;42.684;23.350;2022-08-01T13:13:46;247.93;;;129.57;;
14066;SDS011;7108;42.684;23.350;2022-08-01T13:16:20;247.90;;;127.33;;
14066;SDS011;7108;42.684;23.350;2022-08-01T13:18:51;236.17;;;124.10;;
14066;SDS011;7108;42.684;23.350;2022-08-01T13:21:18;241.17;;;123.87;;
14066;SDS011;7108;42.684;23.350;2022-08-01T13:24:01;253.90;;;127.07;;
14066;SDS011;7108;42.684;23.350;2022-08-01T13:29:14;254.80;;;129.30;;
14066;SDS011;7108;42.684;23.350;2022-08-01T13:31:44;236.20;;;126.27;;
14066;SDS011;7108;42.684;23.350;2022-08-01T13:34:10;249.40;;;127.03;;
14066;SDS011;7108;42.684;23.350;2022-08-01T13:36:36;263.53;;;129.77;;
14066;SDS011;7108;42.684;23.350;2022-08-01T13:39:02;246.37;;;128.60;;
14066;SDS011;7108;42.684;23.350;2022-08-01T13:41:47;242.73;;;123.90;;
14066;SDS011;7108;42.684;23.350;2022-08-01T13:44:13;257.07;;;125.97;;
14066;SDS011;7108;42.684;23.350;2022-08-01T13:46:39;256.63;;;131.23;;
14066;SDS011;7108;42.684;23.350;2022-08-01T13:49:06;261.70;;;127.00;;
14066;SDS011;7108;42.684;23.350;2022-08-01T13:51:32;256.87;;;127.87;;
14066;SDS011;7108;42.684;23.350;2022-08-01T13:53:58;251.13;;;128.77;;
14066;SDS011;7108;42.684;23.350;2022-08-01T13:56:24;264.07;;;127.03;;
14066;SDS011;7108;42.684;23.350;2022-08-01T13:58:50;297.67;;;135.73;;
14066;SDS011;7108;42.684;23.350;2022-08-01T14:01:15;330.73;;;133.27;;
14066;SDS011;7108;42.684;23.350;2022-08-01T14:03:41;289.10;;;133.03;;
14066;SDS011;7108;42.684;23.350;2022-08-01T14:06:07;284.43;;;133.27;;
14066;SDS011;7108;42.684;23.350;2022-08-01T14:08:33;303.57;;;139.13;;
14066;SDS011;7108;42.684;23.350;2022-08-01T14:10:58;306.13;;;138.10;;
14066;SDS011;7108;42.684;23.350;2022-08-01T14:13:24;296.80;;;134.73;;
14066;SDS011;7108;42.684;23.350;2022-08-01T14:15:51;292.23;;;135.57;;
14066;SDS011;7108;42.684;23.350;2022-08-01T14:18:17;292.17;;;133.33;;
14066;SDS011;7108;42.684;23.350;2022-08-01T14:20:42;284.87;;;132.73;;
14066;SDS011;7108;42.684;23.350;2022-08-01T14:23:08;293.60;;;132.50;;
14066;SDS011;7108;42.684;23.350;2022-08-01T14:25:38;306.10;;;134.03;;
14066;SDS011;7108;42.684;23.350;2022-08-01T14:28:04;285.13;;;132.03;;
14066;SDS011;7108;42.684;23.350;2022-08-01T14:30:31;311.67;;;135.50;;
14066;SDS011;7108;42.684;23.350;2022-08-01T14:32:57;301.27;;;135.70;;
14066;SDS011;7108;42.684;23.350;2022-08-01T14:35:22;289.13;;;131.43;;
14066;SDS011;7108;42.684;23.350;2022-08-01T14:37:47;295.23;;;134.50;;
14066;SDS011;7108;42.684;23.350;2022-08-01T14:40:13;320.67;;;141.93;;
14066;SDS011;7108;42.684;23.350;2022-08-01T14:42:39;284.70;;;133.53;;
14066;SDS011;7108;42.684;23.350;2022-08-01T14:45:05;305.23;;;137.90;;
14066;SDS011;7108;42.684;23.350;2022-08-01T14:47:40;304.10;;;135.13;;
14066;SDS011;7108;42.684;23.350;2022-08-01T14:50:07;296.83;;;137.80;;
14066;SDS011;7108;42.684;23.350;2022-08-01T14:52:35;299.23;;;135.37;;
14066;SDS011;7108;42.684;23.350;2022-08-01T14:55:02;291.90;;;133.20;;
14066;SDS011;7108;42.684;23.350;2022-08-01T14:57:28;275.87;;;132.93;;
14066;SDS011;7108;42.684;23.350;2022-08-01T14:59:54;277.00;;;134.87;;
14066;SDS011;7108;42.684;23.350;2022-08-01T15:02:20;302.23;;;134.03;;
14066;SDS011;7108;42.684;23.350;2022-08-01T15:04:46;308.67;;;138.10;;
14066;SDS011;7108;42.684;23.350;2022-08-01T15:07:12;294.97;;;134.43;;
14066;SDS011;7108;42.684;23.350;2022-08-01T15:09:38;302.70;;;136.73;;
14066;SDS011;7108;42.684;23.350;2022-08-01T15:12:04;284.63;;;132.03;;
14066;SDS011;7108;42.684;23.350;2022-08-01T15:14:30;304.73;;;139.33;;
14066;SDS011;7108;42.684;23.350;2022-08-01T15:17:15;278.17;;;134.50;;